San Jose, Illinois
Current Conditions -  °F | °C
As of 7:35 PM on Friday 19 Dec 2014 (Local Time) from KAAA Reporting Station
Broken Clouds Broken Clouds  
Wind Chill: 30°   Ceiling: 5000
Heat Index: 30°   Visibility: 7mi
Dew Point: 27°   Wind: 3mph
Humidity: 89%   Direction: 80°E
Pressure: 30.29"   Gusts: NA
Location:  40.3°N, 89.6°W
Report Text: KAAA 200135Z AUTO 08003KT 7SM BKN050 M01/M03 A3029 RMK AO2 T10101026
Loading
Personal Weather Stations






























Interactive Weather Map New forecast layout! Learn more

10-Day Weather Forecast

Advertisements
Track Severe Weather on mobile